This is the latest recevied weather packets stored in our database for station/object W9QL-13. If no packets are shown the sender has not sent any weather packets the latest 1 day(s).
| Time | Temp. | Humidity | Pressure | Rain* | Wind** | Luminosity | Snow |
|---|---|---|---|---|---|---|---|
| 1778025843 | 12.22° C | 37% | 1007.2 hPa | 0 mm | 0.89 m/s, 318° | - | - |
| 1778025543 | 12.22° C | 37% | 1007.2 hPa | 0 mm | 1.34 m/s, 353° | - | - |
| 1778025242 | 12.22° C | 37% | 1007.2 hPa | 0 mm | 0.45 m/s, 21° | - | - |
| 1778024912 | 12.22° C | 37% | 1007.2 hPa | 0 mm | 1.34 m/s, 338° | - | - |
| 1778024612 | 12.78° C | 37% | 1007.1 hPa | 0 mm | 1.34 m/s, 359° | - | - |
| 1778024316 | 12.78° C | 37% | 1007.2 hPa | 0 mm | 0.89 m/s, 340° | - | - |
| 1778023982 | 12.78° C | 37% | 1007.2 hPa | 0 mm | 0.45 m/s, 271° | - | - |
| 1778023682 | 12.78° C | 37% | 1007.2 hPa | 0 mm | 0.89 m/s, 337° | - | - |
| 1778023382 | 12.78° C | 37% | 1007.1 hPa | 0 mm | 0.45 m/s, 291° | - | - |
| 1778023082 | 12.78° C | 37% | 1007.1 hPa | 0 mm | 0 m/s | - | - |
| 1778022752 | 12.78° C | 37% | 1007.2 hPa | 0 mm | 0.45 m/s, 6° | - | - |
| 1778022452 | 12.78° C | 37% | 1007.3 hPa | 0 mm | 1.34 m/s, 311° | - | - |
| 1778022152 | 12.78° C | 37% | 1007.3 hPa | 0 mm | 0.89 m/s, 295° | - | - |
| 1778021852 | 12.78° C | 37% | 1007.4 hPa | 0 mm | 0.89 m/s, 303° | - | - |
| 1778021522 | 13.33° C | 37% | 1007.4 hPa | 0 mm | 0.45 m/s, 291° | - | - |
| 1778021222 | 13.33° C | 37% | 1007.4 hPa | 0 mm | 0.89 m/s, 335° | - | - |
| 1778020892 | 13.33° C | 37% | 1007.4 hPa | 0 mm | 0.89 m/s, 336° | - | - |
| 1778020593 | 13.33° C | 37% | 1007.3 hPa | 0 mm | 0.45 m/s, 312° | - | - |
| 1778020292 | 13.33° C | 37% | 1007.4 hPa | 0 mm | 0.45 m/s, 318° | - | - |
| 1778019992 | 13.33° C | 37% | 1007.4 hPa | 0 mm | 1.34 m/s, 335° | - | - |
| 1778019662 | 13.33° C | 37% | 1007.4 hPa | 0 mm | 1.34 m/s, 337° | - | - |
| 1778019334 | 13.33° C | 37% | 1007.3 hPa | 0 mm | 0.89 m/s, 342° | - | - |
| 1778019032 | 13.33° C | 37% | 1007.4 hPa | 0 mm | 0.89 m/s, 335° | - | - |
| 1778018732 | 13.33° C | 37% | 1007.4 hPa | 0 mm | 0.45 m/s, 320° | - | - |
| 1778018432 | 13.89° C | 37% | 1007.5 hPa | 0 mm | 0.45 m/s, 353° | - | - |
* Rain latest hour (hover to see other rain measurements)
** Current wind speed in m/s (hover to see current wind gust speed)